Time;durP1;ratioP1;P1;durP2;ratioP2;P2;SDS_P1;SDS_P2;PMS_P1;PMS_P2;Temp;Humidity;BMP_temperature;BMP_pressure;BME280_temperature;BME280_humidity;BME280_pressure;Samples;Min_cycle;Max_cycle;Signal;HPM_P1;HPM_P2
2022/09/02 00:01:15;;;;;;;12.30;6.78;;;;;;;15.87;53.34;101562.94;5072199;28;20021;-55
2022/09/02 00:03:41;;;;;;;13.63;7.22;;;;;;;15.84;53.50;101563.59;5072935;28;20036;-56
2022/09/02 00:06:06;;;;;;;9.00;7.10;;;;;;;15.80;53.57;101560.59;5072575;28;20032;-55
2022/09/02 00:08:32;;;;;;;12.55;7.32;;;;;;;15.80;53.63;101565.34;5072503;28;20029;-55
2022/09/02 00:10:59;;;;;;;11.90;7.40;;;;;;;15.73;53.84;101566.66;5072875;28;20181;-54
2022/09/02 00:13:27;;;;;;;13.43;7.35;;;;;;;15.70;54.06;101567.28;5072090;28;20060;-55
2022/09/02 00:15:52;;;;;;;12.80;7.05;;;;;;;15.66;54.10;101565.47;5071719;28;20038;-55
2022/09/02 00:18:18;;;;;;;12.52;6.95;;;;;;;15.61;54.65;101560.84;5071940;28;20053;-55
2022/09/02 00:20:45;;;;;;;11.68;6.93;;;;;;;15.56;54.30;101556.25;5072222;28;20375;-55
2022/09/02 00:23:12;;;;;;;14.00;7.28;;;;;;;15.55;54.54;101560.19;5072409;28;20021;-56
2022/09/02 00:25:38;;;;;;;10.65;6.90;;;;;;;15.50;55.07;101556.72;5072230;28;20032;-58
2022/09/02 00:28:04;;;;;;;11.23;6.95;;;;;;;15.47;54.80;101555.41;5072394;28;20055;-57
2022/09/02 00:30:30;;;;;;;13.00;7.38;;;;;;;15.42;55.05;101550.78;5072303;28;20082;-57
2022/09/02 00:32:55;;;;;;;11.85;7.35;;;;;;;15.39;55.15;101553.41;5072349;28;20024;-55
2022/09/02 00:35:21;;;;;;;15.77;7.80;;;;;;;15.34;55.64;101561.91;5072059;28;20021;-55
2022/09/02 00:37:46;;;;;;;15.63;7.68;;;;;;;15.28;55.58;101564.84;5072123;28;20086;-55
2022/09/02 00:40:12;;;;;;;13.68;7.78;;;;;;;15.22;55.56;101552.19;5071963;28;20476;-55
2022/09/02 00:42:38;;;;;;;13.48;7.40;;;;;;;15.24;55.51;101554.66;5072291;28;20028;-57
2022/09/02 00:45:05;;;;;;;12.05;6.82;;;;;;;15.21;55.71;101549.72;5072098;28;20020;-55
2022/09/02 00:47:31;;;;;;;13.00;7.20;;;;;;;15.16;56.10;101547.06;5072292;28;20372;-55
2022/09/02 00:49:57;;;;;;;14.90;7.93;;;;;;;15.14;56.00;101550.19;5071883;28;20496;-57
2022/09/02 00:52:48;;;;;;;13.10;7.68;;;;;;;15.12;55.83;101549.69;5072349;28;20098;-58
2022/09/02 00:55:21;;;;;;;13.35;7.70;;;;;;;15.07;56.43;101544.22;5072664;28;20150;-57
2022/09/02 00:57:51;;;;;;;12.55;7.70;;;;;;;15.08;56.22;101546.72;5072014;28;20036;-52
2022/09/02 01:00:20;;;;;;;13.30;7.30;;;;;;;14.97;56.53;101535.00;5072191;28;20434;-55
2022/09/02 01:02:49;;;;;;;14.55;7.50;;;;;;;14.99;56.53;101543.06;5071825;28;20110;-55
2022/09/02 01:05:17;;;;;;;14.00;7.20;;;;;;;14.93;57.01;101536.78;5071866;28;20043;-56
2022/09/02 01:07:43;;;;;;;13.68;7.55;;;;;;;14.89;57.02;101540.53;5072309;28;20028;-57
2022/09/02 01:10:13;;;;;;;14.00;7.28;;;;;;;14.86;57.19;101536.44;5071599;28;20024;-56
2022/09/02 01:12:39;;;;;;;15.52;7.60;;;;;;;14.82;57.38;101536.25;5071583;28;20043;-56
2022/09/02 01:15:06;;;;;;;12.20;7.43;;;;;;;14.79;57.84;101538.81;5071756;28;20029;-55
2022/09/02 01:17:33;;;;;;;13.60;7.80;;;;;;;14.75;57.59;101529.47;5085081;22;20095;-63
2022/09/02 01:20:04;;;;;;;14.57;8.20;;;;;;;14.71;57.79;101531.25;5071321;28;20111;-62
2022/09/02 01:22:32;;;;;;;14.15;7.60;;;;;;;14.69;58.00;101539.91;5072051;28;20025;-62
2022/09/02 01:25:04;;;;;;;13.02;7.50;;;;;;;14.65;57.97;101536.09;5072007;28;20029;-61
2022/09/02 01:27:29;;;;;;;13.50;7.43;;;;;;;14.64;58.21;101534.47;5076141;28;20037;-61
2022/09/02 01:29:59;;;;;;;13.32;7.60;;;;;;;14.56;58.27;101524.06;5075648;28;20028;-61
2022/09/02 01:32:28;;;;;;;17.35;8.10;;;;;;;14.52;58.52;101529.44;5075637;28;20035;-60
2022/09/02 01:34:54;;;;;;;12.98;7.70;;;;;;;14.51;58.76;101525.84;5075591;28;20040;-61
2022/09/02 01:37:20;;;;;;;13.93;7.60;;;;;;;14.52;58.71;101529.44;5075226;28;20032;-61
2022/09/02 01:39:45;;;;;;;15.23;8.00;;;;;;;14.54;58.41;101521.59;5075221;28;20466;-62
2022/09/02 01:42:11;;;;;;;15.05;8.25;;;;;;;14.50;58.47;101517.78;5075268;28;20027;-61
2022/09/02 01:44:42;;;;;;;12.65;7.63;;;;;;;14.47;58.80;101518.44;5075392;28;20138;-61
2022/09/02 01:47:09;;;;;;;16.33;8.52;;;;;;;14.42;58.87;101513.00;5073972;28;20039;-61
2022/09/02 01:49:35;;;;;;;14.00;7.90;;;;;;;14.41;58.90;101511.34;5075431;28;20082;-61
2022/09/02 01:52:00;;;;;;;11.88;7.78;;;;;;;14.35;59.04;101517.06;5075478;28;20033;-60
2022/09/02 01:54:25;;;;;;;12.00;8.07;;;;;;;14.35;59.10;101519.03;5075355;28;20355;-60
2022/09/02 01:56:50;;;;;;;14.73;8.40;;;;;;;14.31;59.24;101521.59;5075380;28;20029;-61
2022/09/02 01:59:16;;;;;;;13.75;7.72;;;;;;;14.28;59.62;101521.41;5075027;28;20035;-59
2022/09/02 02:01:45;;;;;;;12.25;7.47;;;;;;;14.24;59.54;101517.63;5075717;28;20033;-61
2022/09/02 02:04:11;;;;;;;12.00;7.60;;;;;;;14.18;59.64;101517.72;5075132;28;20029;-60
2022/09/02 02:06:40;;;;;;;13.80;8.13;;;;;;;14.13;59.77;101514.22;5074769;28;20074;-61
2022/09/02 02:09:05;;;;;;;14.30;8.02;;;;;;;14.15;59.93;101517.53;5075039;28;20459;-61
2022/09/02 02:11:31;;;;;;;14.60;7.40;;;;;;;14.12;60.37;101516.22;5075276;28;20024;-61
2022/09/02 02:13:56;;;;;;;16.48;8.00;;;;;;;14.11;60.11;101525.69;5074848;28;20077;-61
2022/09/02 02:16:21;;;;;;;14.43;7.97;;;;;;;14.08;60.08;101517.97;5074526;28;20069;-62
2022/09/02 02:18:46;;;;;;;14.55;7.80;;;;;;;14.08;60.24;101517.97;5074624;28;20067;-61
2022/09/02 02:21:12;;;;;;;14.90;8.00;;;;;;;14.07;60.28;101513.56;5074632;28;20029;-61
2022/09/02 02:23:38;;;;;;;16.60;8.50;;;;;;;14.05;60.34;101518.59;5074671;28;20017;-61
2022/09/02 02:26:03;;;;;;;14.98;8.20;;;;;;;14.02;60.58;101513.66;5075373;28;20108;-60
2022/09/02 02:28:29;;;;;;;16.48;8.55;;;;;;;14.03;60.26;101515.31;5074727;28;20036;-60
2022/09/02 02:30:54;;;;;;;14.10;8.10;;;;;;;13.98;60.81;101507.91;5074270;28;20020;-61
2022/09/02 02:33:20;;;;;;;14.43;8.13;;;;;;;13.95;61.13;101514.09;5074545;28;20476;-60
2022/09/02 02:35:45;;;;;;;13.73;8.32;;;;;;;13.96;61.02;101510.16;5074258;28;20024;-61
2022/09/02 02:38:10;;;;;;;13.15;7.80;;;;;;;13.94;60.89;101506.88;5073432;28;20178;-61
2022/09/02 02:40:36;;;;;;;14.27;8.25;;;;;;;13.91;60.92;101504.72;5056265;28;20027;-60
2022/09/02 02:43:01;;;;;;;16.05;8.18;;;;;;;13.91;61.01;101503.91;5074471;28;20060;-62
2022/09/02 02:45:27;;;;;;;14.65;8.40;;;;;;;13.89;61.13;101499.47;5074542;28;20133;-60
2022/09/02 02:47:53;;;;;;;14.48;8.20;;;;;;;13.89;61.33;101501.44;5074003;28;20025;-62
2022/09/02 02:50:20;;;;;;;12.25;7.90;;;;;;;13.86;61.20;101502.06;5074087;28;20120;-62
2022/09/02 02:52:47;;;;;;;14.52;8.45;;;;;;;13.86;60.99;101496.50;5074474;28;20040;-60
2022/09/02 02:55:13;;;;;;;13.77;8.52;;;;;;;13.87;60.97;101500.91;5074436;28;20027;-61
2022/09/02 02:57:41;;;;;;;14.60;8.30;;;;;;;13.84;61.40;101493.19;5074287;28;20095;-61
2022/09/02 03:00:14;;;;;;;14.90;8.30;;;;;;;13.83;61.44;101500.72;5074189;28;20107;-61
2022/09/02 03:02:40;;;;;;;15.73;8.10;;;;;;;13.84;61.56;101502.38;5073821;28;20044;-62
2022/09/02 03:05:07;;;;;;;15.77;8.30;;;;;;;13.81;61.44;101491.88;5072300;28;20444;-61
2022/09/02 03:07:32;;;;;;;13.10;7.80;;;;;;;13.79;61.59;101494.13;5074274;28;20363;-61
2022/09/02 03:09:58;;;;;;;15.10;8.25;;;;;;;13.78;61.65;101488.88;5074506;28;20034;-62
2022/09/02 03:12:24;;;;;;;14.43;7.95;;;;;;;13.76;61.49;101488.38;5073601;28;20467;-62
2022/09/02 03:14:50;;;;;;;13.57;7.50;;;;;;;13.76;61.39;101494.78;5073800;28;20066;-62
2022/09/02 03:17:15;;;;;;;13.68;7.63;;;;;;;13.73;61.64;101493.44;5072926;28;20452;-61
2022/09/02 03:19:41;;;;;;;12.90;7.60;;;;;;;13.72;61.56;101493.75;5073843;28;20028;-60
2022/09/02 03:22:06;;;;;;;15.88;8.13;;;;;;;13.70;61.88;101493.22;5073851;28;20075;-63
2022/09/02 03:24:31;;;;;;;16.50;8.07;;;;;;;13.68;61.96;101489.94;5074021;28;20063;-60
2022/09/02 03:26:57;;;;;;;14.43;7.80;;;;;;;13.62;61.79;101488.41;5073377;28;20039;-61
2022/09/02 03:29:22;;;;;;;15.23;8.02;;;;;;;13.63;61.85;101490.03;5073196;28;20086;-61
2022/09/02 03:31:47;;;;;;;14.02;7.90;;;;;;;13.59;62.23;101494.59;5072800;28;20025;-60
2022/09/02 03:34:12;;;;;;;15.73;8.10;;;;;;;13.55;62.18;101481.31;5072949;28;20021;-62
2022/09/02 03:36:39;;;;;;;16.80;7.90;;;;;;;13.55;62.05;101492.44;5073232;28;20452;-60
2022/09/02 03:39:07;;;;;;;15.05;7.93;;;;;;;13.51;62.37;101476.69;5073750;28;20047;-61
2022/09/02 03:41:33;;;;;;;13.73;8.20;;;;;;;13.53;62.08;101485.53;5072832;28;20062;-59
2022/09/02 03:43:58;;;;;;;14.85;8.13;;;;;;;13.53;61.77;101478.00;5073108;28;20408;-62
2022/09/02 03:46:24;;;;;;;15.95;8.43;;;;;;;13.48;62.36;101475.34;5073216;28;20024;-62
2022/09/02 03:48:50;;;;;;;15.65;8.10;;;;;;;13.49;62.21;101482.56;5072089;28;20202;-62
2022/09/02 03:51:16;;;;;;;13.45;7.60;;;;;;;13.49;62.51;101476.16;5072984;28;20029;-61
2022/09/02 03:53:42;;;;;;;14.95;7.90;;;;;;;13.46;62.53;101472.06;5073086;28;20062;-62
2022/09/02 03:56:11;;;;;;;14.55;7.95;;;;;;;13.40;62.65;101465.78;5073204;28;20029;-61
2022/09/02 03:58:37;;;;;;;13.90;8.00;;;;;;;13.44;62.69;101465.16;5072865;28;20032;-60
2022/09/02 04:01:03;;;;;;;14.00;7.85;;;;;;;13.43;62.62;101477.41;5072856;28;20025;-60
2022/09/02 04:03:29;;;;;;;12.82;7.78;;;;;;;13.42;62.80;101476.56;5072735;28;20039;-60
2022/09/02 04:05:54;;;;;;;15.60;8.20;;;;;;;13.40;62.89;101464.97;5072502;28;20025;-60
2022/09/02 04:08:20;;;;;;;13.82;8.07;;;;;;;13.38;62.91;101458.88;5072530;28;20028;-61
2022/09/02 04:10:46;;;;;;;16.30;8.18;;;;;;;13.39;62.80;101466.09;5072571;28;20047;-61
2022/09/02 04:13:11;;;;;;;13.07;7.90;;;;;;;13.40;62.44;101463.00;5072587;28;20106;-60
2022/09/02 04:15:46;;;;;;;14.15;8.13;;;;;;;13.38;62.28;101456.91;5072313;28;20147;-60
2022/09/02 04:18:12;;;;;;;16.48;8.10;;;;;;;13.43;62.87;101464.34;5072467;28;20048;-60
2022/09/02 04:20:39;;;;;;;14.93;8.10;;;;;;;13.44;62.49;101463.19;5072257;28;20021;-60
2022/09/02 04:23:04;;;;;;;14.63;8.20;;;;;;;13.47;62.48;101457.03;5054024;28;20368;-60
2022/09/02 04:25:30;;;;;;;14.82;8.20;;;;;;;13.46;62.81;101451.78;5072390;28;20027;-59
2022/09/02 04:27:56;;;;;;;15.55;8.70;;;;;;;13.48;62.67;101466.19;5072298;28;20115;-61
2022/09/02 04:30:23;;;;;;;14.65;8.10;;;;;;;13.47;62.85;101459.81;5072385;28;20490;-60
2022/09/02 04:32:48;;;;;;;16.42;8.15;;;;;;;13.47;62.94;101451.47;5072627;28;20033;-60
2022/09/02 04:35:14;;;;;;;17.65;9.00;;;;;;;13.48;62.60;101455.06;5072277;28;20503;-61
2022/09/02 04:37:39;;;;;;;18.25;8.82;;;;;;;13.44;63.20;101448.50;5072117;28;20440;-61
2022/09/02 04:40:05;;;;;;;17.10;9.07;;;;;;;13.46;62.95;101457.34;5071779;28;20020;-61
2022/09/02 04:42:30;;;;;;;17.27;8.82;;;;;;;13.44;63.07;101445.72;5071968;28;20070;-60
2022/09/02 04:44:56;;;;;;;14.60;8.60;;;;;;;13.46;63.40;101444.25;5071680;28;20081;-60
2022/09/02 04:47:22;;;;;;;14.68;8.68;;;;;;;13.50;63.28;101447.25;5071912;28;20052;-59
2022/09/02 04:49:50;;;;;;;14.07;9.18;;;;;;;13.45;62.85;101441.81;5071387;28;20109;-61
2022/09/02 04:52:15;;;;;;;15.48;8.80;;;;;;;13.52;63.15;101450.53;5071315;28;20090;-61
2022/09/02 04:54:40;;;;;;;16.13;9.13;;;;;;;13.55;63.03;101458.25;5071816;28;20060;-60
2022/09/02 04:57:06;;;;;;;16.17;9.57;;;;;;;13.57;62.86;101454.03;5071752;28;20112;-60
2022/09/02 04:59:35;;;;;;;17.40;9.45;;;;;;;13.59;62.88;101453.72;5072070;28;20028;-61
2022/09/02 05:02:00;;;;;;;16.60;9.70;;;;;;;13.62;62.91;101447.53;5077762;28;20032;-61
2022/09/02 05:04:25;;;;;;;16.05;9.05;;;;;;;13.63;62.96;101449.19;5078342;28;20024;-61
2022/09/02 05:06:52;;;;;;;16.20;9.60;;;;;;;13.64;62.76;101453.63;5077911;28;20036;-61
2022/09/02 05:09:17;;;;;;;15.15;8.60;;;;;;;13.64;63.03;101453.63;5078240;28;20050;-60
2022/09/02 05:11:43;;;;;;;14.85;9.15;;;;;;;13.65;63.01;101454.41;5078166;28;20021;-60
2022/09/02 05:14:08;;;;;;;19.88;9.60;;;;;;;13.66;63.23;101456.06;5077771;28;20033;-60
2022/09/02 05:16:37;;;;;;;16.70;9.55;;;;;;;13.71;63.12;101461.50;5077615;28;20103;-60
2022/09/02 05:19:04;;;;;;;17.75;9.32;;;;;;;13.69;62.85;101449.91;5077920;28;20094;-61
2022/09/02 05:21:32;;;;;;;17.33;9.20;;;;;;;13.76;63.05;101447.50;5077908;28;20059;-60
2022/09/02 05:23:57;;;;;;;18.25;9.48;;;;;;;13.85;62.72;101459.53;5078022;28;20416;-61
2022/09/02 05:26:23;;;;;;;15.63;9.13;;;;;;;13.91;62.46;101451.03;5078443;28;20056;-60
2022/09/02 05:28:49;;;;;;;15.23;9.20;;;;;;;13.94;62.50;101456.00;5078289;28;20024;-61
2022/09/02 05:31:17;;;;;;;15.50;9.20;;;;;;;14.02;62.61;101458.03;5077694;28;20122;-62
2022/09/02 05:33:43;;;;;;;17.77;9.13;;;;;;;14.08;62.53;101453.16;5077494;28;20052;-60
2022/09/02 05:36:12;;;;;;;21.17;9.20;;;;;;;14.12;62.58;101452.22;5077925;28;20063;-61
2022/09/02 05:38:42;;;;;;;16.75;8.63;;;;;;;14.16;62.38;101453.25;5077498;28;20082;-61
2022/09/02 05:41:11;;;;;;;19.02;9.48;;;;;;;14.17;62.46;101452.06;5077968;28;20348;-62
2022/09/02 05:43:38;;;;;;;19.27;9.32;;;;;;;14.28;61.91;101455.44;5078511;28;20025;-62
2022/09/02 05:46:08;;;;;;;16.52;8.90;;;;;;;14.30;62.22;101458.75;5078278;28;20028;-60
2022/09/02 05:51:19;;;;;;;17.27;8.98;;;;;;;14.42;61.78;101466.50;5077600;28;20498;-60
2022/09/02 05:53:44;;;;;;;15.85;8.50;;;;;;;14.46;62.19;101455.56;5078274;28;20032;-61
2022/09/02 05:56:09;;;;;;;16.98;8.60;;;;;;;14.51;61.77;101452.63;5077685;28;20020;-60
2022/09/02 05:58:35;;;;;;;14.85;8.48;;;;;;;14.57;61.54;101448.59;5077667;28;20017;-61
2022/09/02 06:01:07;;;;;;;17.15;8.70;;;;;;;14.63;61.46;101455.66;5078049;28;20036;-60
2022/09/02 06:03:32;;;;;;;14.63;8.48;;;;;;;14.69;61.51;101452.78;5077967;28;20035;-60
2022/09/02 06:05:58;;;;;;;16.50;9.13;;;;;;;14.72;61.46;101455.75;5078019;28;20028;-60
2022/09/02 06:08:24;;;;;;;16.70;9.20;;;;;;;14.78;61.01;101448.09;5077897;28;20025;-60
2022/09/02 06:10:49;;;;;;;17.13;8.80;;;;;;;14.88;61.13;101450.56;5077022;28;20044;-60
2022/09/02 06:13:21;;;;;;;15.52;8.25;;;;;;;14.94;61.07;101446.50;5073772;28;20103;-60
2022/09/02 06:15:47;;;;;;;21.48;8.70;;;;;;;14.97;61.16;101448.63;5075000;28;20033;-61
2022/09/02 06:18:13;;;;;;;16.67;8.55;;;;;;;15.03;60.68;101452.09;5056623;28;20490;-59
2022/09/02 06:20:41;;;;;;;18.45;8.40;;;;;;;15.05;60.83;101444.25;5074510;28;20025;-59
2022/09/02 06:23:07;;;;;;;14.52;8.27;;;;;;;15.12;60.65;101443.78;5074854;28;20454;-60
2022/09/02 06:25:36;;;;;;;15.85;8.77;;;;;;;15.13;60.25;101443.44;5073911;28;20138;-62
2022/09/02 06:28:01;;;;;;;15.30;8.25;;;;;;;15.21;60.35;101452.19;5048805;28;20456;-60
2022/09/02 06:30:26;;;;;;;15.57;9.32;;;;;;;15.29;60.42;101448.59;5071007;28;20039;-59
2022/09/02 06:32:52;;;;;;;19.33;9.70;;;;;;;15.32;59.90;101447.94;5066568;28;20424;-60
2022/09/02 06:35:17;;;;;;;16.60;8.63;;;;;;;15.38;60.02;101443.88;5073001;28;20102;-61
2022/09/02 06:37:42;;;;;;;16.98;8.23;;;;;;;15.42;59.75;101447.63;5074001;28;20028;-60
2022/09/02 06:40:08;;;;;;;16.65;8.80;;;;;;;15.48;59.46;101439.13;5073935;28;20031;-61
2022/09/02 06:42:34;;;;;;;17.50;8.43;;;;;;;15.55;59.50;101437.47;5071024;28;20048;-61
2022/09/02 06:44:59;;;;;;;16.58;8.32;;;;;;;15.64;58.95;101443.09;5054127;28;20032;-61
2022/09/02 06:47:24;;;;;;;14.30;7.75;;;;;;;15.74;58.97;101434.41;5063297;28;20063;-60
2022/09/02 06:49:53;;;;;;;13.98;8.10;;;;;;;15.80;58.75;101434.22;5060690;28;20025;-60
2022/09/02 06:52:18;;;;;;;15.43;8.30;;;;;;;15.85;58.56;101431.31;5053638;28;20033;-59
2022/09/02 06:54:43;;;;;;;16.20;8.25;;;;;;;15.96;58.63;101440.16;5069905;28;20024;-59
2022/09/02 06:57:09;;;;;;;16.30;8.00;;;;;;;16.00;58.10;101435.59;5054023;28;20079;-59
2022/09/02 06:59:35;;;;;;;16.25;8.30;;;;;;;16.04;58.37;101434.59;5053635;28;20441;-60
2022/09/02 07:02:00;;;;;;;19.60;8.50;;;;;;;16.09;57.91;101430.81;5053641;28;20036;-59
2022/09/02 07:07:11;;;;;;;18.20;8.70;;;;;;;16.24;57.82;101431.44;5051974;28;20048;-60
2022/09/02 07:09:37;;;;;;;18.63;8.63;;;;;;;16.34;57.63;101431.09;5052075;28;20029;-59
2022/09/02 07:12:03;;;;;;;16.42;8.63;;;;;;;16.43;57.61;101422.72;5032734;28;20055;-60
2022/09/02 07:14:29;;;;;;;17.73;8.35;;;;;;;16.51;57.60;101421.88;5053849;28;20067;-60
2022/09/02 07:16:58;;;;;;;17.92;8.93;;;;;;;16.57;57.29;101430.91;5060670;28;20031;-61
2022/09/02 07:19:24;;;;;;;17.67;8.68;;;;;;;16.63;57.14;101427.56;5070711;28;20038;-59
2022/09/02 07:21:51;;;;;;;17.38;8.48;;;;;;;16.72;56.86;101419.19;5065559;28;20056;-61
2022/09/02 07:24:16;;;;;;;21.17;10.23;;;;;;;16.80;56.69;101420.31;5049100;28;20575;-58
2022/09/02 07:26:42;;;;;;;16.52;8.32;;;;;;;16.86;56.74;101427.34;5060746;28;20063;-61
2022/09/02 07:29:08;;;;;;;17.15;8.82;;;;;;;16.96;56.51;101420.56;5069994;28;20035;-61
2022/09/02 07:31:39;;;;;;;17.30;8.73;;;;;;;16.96;55.96;101409.38;5070309;28;20021;-60
2022/09/02 07:34:06;;;;;;;18.98;8.48;;;;;;;17.14;55.69;101422.13;5068381;28;20035;-60
2022/09/02 07:36:33;;;;;;;17.17;8.73;;;;;;;17.24;55.82;101411.75;5070827;28;20422;-61
2022/09/02 07:38:59;;;;;;;18.10;8.80;;;;;;;17.34;55.28;101422.50;5070606;28;20028;-60
2022/09/02 07:41:25;;;;;;;17.17;8.93;;;;;;;17.45;54.70;101412.56;5070123;28;20036;-60
2022/09/02 07:43:50;;;;;;;18.00;9.40;;;;;;;17.53;54.66;101412.84;5070396;28;20078;-60
2022/09/02 07:46:16;;;;;;;15.30;8.60;;;;;;;17.61;54.44;101410.00;5068916;28;20047;-60
2022/09/02 07:48:42;;;;;;;16.60;8.70;;;;;;;17.68;54.39;101415.03;5070597;28;20032;-60
2022/09/02 07:51:08;;;;;;;15.88;8.48;;;;;;;17.74;54.20;101413.66;5070199;28;20039;-60
2022/09/02 07:53:35;;;;;;;15.93;8.65;;;;;;;17.78;54.21;101411.00;5070137;28;20024;-60
2022/09/02 07:56:01;;;;;;;17.67;8.82;;;;;;;17.87;53.97;101416.53;5042159;28;20349;-60
2022/09/02 07:58:27;;;;;;;17.27;8.98;;;;;;;17.92;54.09;101416.31;5065114;28;20044;-60
2022/09/02 08:00:57;;;;;;;18.08;9.23;;;;;;;17.99;53.69;101419.44;5065331;28;20086;-59
2022/09/02 08:03:25;;;;;;;16.42;9.23;;;;;;;18.10;54.24;101419.81;5066403;28;20115;-59
2022/09/02 08:05:51;;;;;;;18.90;9.38;;;;;;;18.16;53.30;101420.44;5068952;28;20035;-59
2022/09/02 08:08:19;;;;;;;17.50;8.82;;;;;;;18.20;53.26;101419.41;5067308;28;20102;-59
2022/09/02 08:10:47;;;;;;;17.92;8.88;;;;;;;18.27;53.08;101416.03;5063257;28;20395;-59
2022/09/02 08:13:13;;;;;;;19.02;9.45;;;;;;;18.37;53.02;101409.97;5067543;28;20372;-59
2022/09/02 08:15:38;;;;;;;18.85;10.15;;;;;;;18.45;53.52;101419.47;5069666;28;20048;-60
2022/09/02 08:18:05;;;;;;;19.83;8.90;;;;;;;18.53;53.26;101409.31;5069319;28;20056;-60
2022/09/02 08:20:31;;;;;;;15.90;9.32;;;;;;;18.58;53.21;101411.91;5068063;28;20028;-60
2022/09/02 08:22:57;;;;;;;18.75;9.13;;;;;;;18.68;52.89;101413.44;5070196;28;20029;-60
2022/09/02 08:25:22;;;;;;;17.25;9.80;;;;;;;18.84;53.04;101405.97;5069852;28;20117;-60
2022/09/02 08:27:48;;;;;;;18.73;9.63;;;;;;;19.01;52.61;101399.38;5069632;28;20036;-61
2022/09/02 08:30:14;;;;;;;19.08;9.63;;;;;;;19.10;52.73;101399.22;5070233;28;20052;-59
2022/09/02 08:32:40;;;;;;;19.63;10.30;;;;;;;19.18;52.26;101401.09;5069141;28;20076;-60
2022/09/02 08:35:07;;;;;;;19.92;9.27;;;;;;;19.35;52.18;101401.19;5069360;28;20076;-59
2022/09/02 08:37:34;;;;;;;19.50;9.68;;;;;;;19.45;51.55;101395.09;5069635;28;20032;-60
2022/09/02 08:40:03;;;;;;;19.30;9.60;;;;;;;19.58;51.18;101390.28;5069635;28;20039;-59
2022/09/02 08:42:38;;;;;;;18.10;9.50;;;;;;;19.77;50.96;101386.84;5069514;28;20375;-59
2022/09/02 08:45:21;;;;;;;19.80;9.70;;;;;;;19.87;51.40;101377.94;5069610;28;20090;-59
2022/09/02 08:47:56;;;;;;;18.27;9.90;;;;;;;20.00;50.81;101378.69;5065220;28;20035;-61
2022/09/02 08:50:23;;;;;;;18.75;9.88;;;;;;;20.16;50.32;101381.56;5069158;28;20404;-60
2022/09/02 08:53:05;;;;;;;18.33;9.48;;;;;;;20.31;50.36;101379.91;5066269;28;20541;-60
2022/09/02 08:55:41;;;;;;;20.58;10.65;;;;;;;20.48;50.14;101383.59;5068325;28;20040;-60
2022/09/02 08:58:07;;;;;;;18.23;9.90;;;;;;;20.62;50.03;101386.75;5069079;28;20028;-59
2022/09/02 09:00:38;;;;;;;21.17;9.45;;;;;;;20.69;50.33;101372.06;5069331;28;20077;-60
2022/09/02 09:03:25;;;;;;;17.70;8.85;;;;;;;20.92;49.79;101385.53;5069745;28;20094;-59
2022/09/02 09:05:54;;;;;;;19.15;9.38;;;;;;;21.04;49.12;101385.41;5069471;28;20044;-59
2022/09/02 09:08:41;;;;;;;17.70;8.77;;;;;;;21.18;48.41;101380.13;5067882;28;20413;-60
2022/09/02 09:11:12;;;;;;;17.30;8.82;;;;;;;21.36;47.70;101374.09;5065915;28;20036;-60
2022/09/02 09:13:49;;;;;;;18.80;8.65;;;;;;;21.57;48.12;101379.34;5068383;28;20070;-60
2022/09/02 09:16:35;;;;;;;19.08;9.20;;;;;;;21.73;47.16;101376.50;5068526;28;20123;-61
2022/09/02 09:19:13;;;;;;;19.35;9.27;;;;;;;21.93;46.29;101384.97;5049169;28;20145;-60
2022/09/02 09:21:39;;;;;;;20.20;9.35;;;;;;;22.04;45.56;101382.34;5055161;28;20032;-59
2022/09/02 09:24:16;;;;;;;19.90;9.60;;;;;;;22.11;46.08;101374.84;5068545;28;20028;-61
2022/09/02 09:26:42;;;;;;;18.48;9.23;;;;;;;22.21;44.88;101375.44;5067894;28;20086;-60
2022/09/02 09:29:08;;;;;;;17.27;9.68;;;;;;;22.26;44.57;101375.94;5068732;28;20024;-59
2022/09/02 09:31:35;;;;;;;19.13;9.80;;;;;;;22.33;44.56;101377.25;5069198;28;20037;-60
2022/09/02 09:34:08;;;;;;;18.42;9.35;;;;;;;22.43;45.05;101376.66;5047877;28;20060;-58
2022/09/02 09:36:40;;;;;;;19.40;10.20;;;;;;;22.59;44.58;101373.72;5049035;28;20357;-60
2022/09/02 09:39:30;;;;;;;16.40;8.88;;;;;;;22.72;44.49;101372.31;5056842;28;20028;-59
2022/09/02 09:42:01;;;;;;;20.05;10.00;;;;;;;22.78;43.36;101372.81;5068688;28;20113;-60
2022/09/02 09:44:43;;;;;;;20.02;9.52;;;;;;;22.97;43.36;101368.28;5069161;28;20025;-60
2022/09/02 09:47:24;;;;;;;19.17;10.20;;;;;;;23.14;43.36;101366.94;5070212;28;20487;-59
2022/09/02 09:50:08;;;;;;;18.60;10.15;;;;;;;23.30;43.15;101370.41;5072005;28;20063;-59
2022/09/02 09:52:33;;;;;;;23.02;10.35;;;;;;;23.40;42.20;101362.47;5054831;28;20024;-59
2022/09/02 09:55:18;;;;;;;19.67;10.68;;;;;;;23.38;42.24;101359.25;5072440;28;20094;-62
2022/09/02 09:57:46;;;;;;;20.85;10.60;;;;;;;23.45;41.92;101353.69;5072873;28;20100;-59
2022/09/02 10:00:13;;;;;;;19.42;10.27;;;;;;;23.57;41.81;101358.28;5072422;28;20029;-59
2022/09/02 10:02:47;;;;;;;20.55;10.85;;;;;;;23.58;41.68;101345.78;5072262;28;20058;-60
2022/09/02 10:05:22;;;;;;;18.13;9.55;;;;;;;23.77;41.71;101341.97;5072532;28;20021;-60
2022/09/02 10:08:01;;;;;;;17.67;9.27;;;;;;;23.87;41.56;101352.56;5072202;28;20035;-58
2022/09/02 10:10:28;;;;;;;18.80;9.48;;;;;;;23.99;41.30;101349.53;5072453;28;20040;-58
2022/09/02 10:12:58;;;;;;;18.48;9.02;;;;;;;24.17;41.44;101345.28;5072560;28;20329;-59
2022/09/02 10:15:33;;;;;;;21.05;9.70;;;;;;;24.37;41.46;101343.03;5071463;28;20040;-60
2022/09/02 10:18:22;;;;;;;19.13;9.35;;;;;;;24.42;41.07;101340.66;5071887;28;20063;-59
2022/09/02 10:20:59;;;;;;;19.95;10.20;;;;;;;24.35;40.35;101346.25;5070324;28;20032;-60
2022/09/02 10:23:51;;;;;;;18.05;9.77;;;;;;;24.31;40.58;101328.44;5060967;28;20037;-59
2022/09/02 10:26:29;;;;;;;18.77;10.20;;;;;;;24.36;40.24;101332.91;5072364;28;20059;-61
2022/09/02 10:29:18;;;;;;;21.42;10.50;;;;;;;24.41;40.18;101324.91;5072113;28;20025;-59
2022/09/02 10:31:44;;;;;;;18.15;9.45;;;;;;;24.38;39.44;101324.88;5071693;28;20028;-62
2022/09/02 10:34:27;;;;;;;21.07;9.43;;;;;;;24.43;40.01;101313.19;5072681;28;20055;-62
2022/09/02 10:37:22;;;;;;;18.35;9.35;;;;;;;24.56;39.25;101319.38;5056748;28;20356;-61
2022/09/02 10:40:09;;;;;;;16.35;9.07;;;;;;;24.60;39.25;101308.88;5072180;28;20539;-61
2022/09/02 10:42:56;;;;;;;13.18;8.50;;;;;;;24.54;38.31;101311.25;5072146;28;20448;-60
2022/09/02 10:45:33;;;;;;;16.33;8.65;;;;;;;24.59;37.47;101315.75;5072264;28;20053;-62
2022/09/02 10:48:12;;;;;;;15.88;8.77;;;;;;;24.66;37.92;101306.50;5071711;28;20506;-61
2022/09/02 10:50:42;;;;;;;16.48;8.43;;;;;;;24.61;36.59;101311.31;5071991;28;20036;-62
2022/09/02 10:53:19;;;;;;;14.90;8.30;;;;;;;24.67;36.86;101323.06;5071843;28;20029;-60
2022/09/02 10:55:57;;;;;;;14.57;7.93;;;;;;;24.64;37.19;101306.91;5072599;28;20075;-61
2022/09/02 10:58:56;;;;;;;14.93;8.45;;;;;;;24.78;36.98;101292.09;5071935;28;20032;-60
2022/09/02 11:01:29;;;;;;;15.55;8.70;;;;;;;24.82;35.48;101300.59;5071835;28;20550;-60
2022/09/02 11:04:04;;;;;;;14.35;8.48;;;;;;;24.89;36.09;101301.44;5072241;28;20032;-61
2022/09/02 11:06:36;;;;;;;16.67;9.73;;;;;;;24.98;36.02;101298.25;5047727;28;20448;-60
2022/09/02 11:09:11;;;;;;;17.92;8.95;;;;;;;24.95;35.81;101290.56;5061633;28;20413;-59
2022/09/02 11:11:48;;;;;;;15.95;8.68;;;;;;;25.01;35.45;101291.00;5072231;28;20035;-59
2022/09/02 11:14:23;;;;;;;15.50;8.50;;;;;;;25.07;35.86;101283.78;5072514;28;20029;-59
2022/09/02 11:16:54;;;;;;;15.75;8.73;;;;;;;25.14;35.30;101280.97;5071610;28;20766;-60
2022/09/02 11:19:37;;;;;;;15.60;8.50;;;;;;;25.16;35.46;101270.06;5072163;28;20150;-60
2022/09/02 11:22:13;;;;;;;14.52;8.45;;;;;;;25.26;34.71;101267.69;5070087;28;20028;-61
2022/09/02 11:24:47;;;;;;;14.98;8.60;;;;;;;25.43;34.93;101268.97;5072062;28;20036;-61
2022/09/02 11:27:34;;;;;;;15.45;8.30;;;;;;;25.40;34.18;101267.75;5072003;28;20024;-61
2022/09/02 11:30:07;;;;;;;18.70;9.25;;;;;;;25.31;34.44;101272.94;5070566;28;20060;-61